Time;durP1;ratioP1;P1;durP2;ratioP2;P2;SDS_P1;SDS_P2;PMS_P1;PMS_P2;Temp;Humidity;BMP_temperature;BMP_pressure;BME280_temperature;BME280_humidity;BME280_pressure;Samples;Min_cycle;Max_cycle;Signal;HPM_P1;HPM_P2
2022/07/15 00:02:21;;;;;;;13.07;6.03;;;15.80;78.40;;;;;;5074355;28;20471;-72
2022/07/15 00:04:46;;;;;;;15.40;5.82;;;15.80;78.50;;;;;;5082295;28;20025;-71
2022/07/15 00:07:13;;;;;;;14.88;6.32;;;15.80;78.50;;;;;;5082002;28;20476;-71
2022/07/15 00:12:23;;;;;;;14.40;5.95;;;15.70;78.40;;;;;;5069923;28;20109;-72
2022/07/15 00:14:49;;;;;;;15.43;7.03;;;15.70;78.40;;;;;;5079199;28;20443;-71
2022/07/15 00:17:15;;;;;;;11.35;5.78;;;15.70;78.60;;;;;;5073111;28;20062;-71
2022/07/15 00:19:40;;;;;;;12.43;6.40;;;15.60;78.70;;;;;;5075782;28;20037;-71
2022/07/15 00:22:06;;;;;;;13.95;6.60;;;15.60;78.80;;;;;;5069426;28;20073;-71
2022/07/15 00:24:32;;;;;;;13.02;5.95;;;15.60;78.80;;;;;;5075545;28;20427;-71
2022/07/15 00:26:58;;;;;;;11.68;5.93;;;15.50;78.80;;;;;;5079263;28;20410;-71
2022/07/15 00:29:25;;;;;;;13.75;6.28;;;15.50;78.90;;;;;;5068632;28;20446;-71
2022/07/15 00:31:52;;;;;;;11.48;6.22;;;15.50;78.90;;;;;;5069355;28;20032;-70
2022/07/15 00:34:18;;;;;;;14.43;6.53;;;15.50;78.70;;;;;;5079947;28;20395;-71
2022/07/15 00:36:44;;;;;;;11.90;6.55;;;15.50;78.80;;;;;;5086118;28;20531;-70
2022/07/15 00:39:09;;;;;;;11.00;6.20;;;15.50;78.90;;;;;;5076702;28;20115;-71
2022/07/15 00:41:40;;;;;;;12.55;5.50;;;15.40;79.00;;;;;;5089445;28;20028;-71
2022/07/15 00:44:05;;;;;;;10.85;5.45;;;15.30;79.20;;;;;;5070245;28;20441;-71
2022/07/15 00:46:34;;;;;;;19.00;6.70;;;15.30;79.30;;;;;;5069550;28;20056;-71
2022/07/15 00:49:00;;;;;;;12.93;6.82;;;15.30;79.30;;;;;;5085728;28;20082;-71
2022/07/15 00:51:26;;;;;;;13.63;6.18;;;15.30;79.20;;;;;;5073565;28;20401;-71
2022/07/15 00:53:53;;;;;;;12.57;5.90;;;15.20;79.30;;;;;;5072169;28;20086;-71
2022/07/15 00:56:23;;;;;;;11.77;5.93;;;15.20;79.50;;;;;;5076779;28;20427;-71
2022/07/15 00:58:51;;;;;;;13.88;6.13;;;15.20;79.50;;;;;;5079047;28;20475;-71
2022/07/15 01:01:20;;;;;;;14.00;5.80;;;15.20;79.50;;;;;;5067880;28;20024;-70
2022/07/15 01:03:48;;;;;;;10.60;5.97;;;15.20;79.60;;;;;;5077168;28;20119;-71
2022/07/15 01:06:14;;;;;;;12.27;6.47;;;15.10;79.60;;;;;;5068558;28;20032;-71
2022/07/15 01:08:40;;;;;;;16.08;6.88;;;15.10;79.50;;;;;;5075710;28;20040;-71
2022/07/15 01:11:06;;;;;;;12.55;6.45;;;15.10;79.70;;;;;;5079695;28;20096;-70
2022/07/15 01:13:32;;;;;;;13.15;6.65;;;15.10;79.70;;;;;;5069685;28;20064;-71
2022/07/15 01:15:57;;;;;;;13.90;6.82;;;15.10;79.80;;;;;;5076954;28;20427;-70
2022/07/15 01:18:23;;;;;;;15.40;7.25;;;15.00;79.90;;;;;;5085467;28;20037;-70
2022/07/15 01:20:49;;;;;;;12.30;6.20;;;15.00;79.90;;;;;;5076794;28;20048;-70
2022/07/15 01:23:16;;;;;;;14.93;7.00;;;15.00;79.90;;;;;;5068303;28;20048;-71
2022/07/15 01:25:42;;;;;;;14.23;7.38;;;15.00;80.00;;;;;;5069912;28;20037;-71
2022/07/15 01:28:08;;;;;;;17.52;7.47;;;14.90;80.10;;;;;;5078132;28;20036;-71
2022/07/15 01:30:35;;;;;;;12.73;6.95;;;14.80;80.00;;;;;;5069137;28;20028;-71
2022/07/15 01:33:01;;;;;;;12.68;6.55;;;14.80;80.10;;;;;;5077303;28;20073;-73
2022/07/15 01:35:28;;;;;;;11.05;6.47;;;14.80;80.20;;;;;;5073188;28;20480;-72
2022/07/15 01:37:54;;;;;;;14.65;7.55;;;14.80;80.20;;;;;;5072055;28;20032;-72
2022/07/15 01:40:19;;;;;;;15.05;7.45;;;14.80;80.50;;;;;;5079181;28;20045;-72
2022/07/15 01:42:45;;;;;;;14.38;7.07;;;14.70;80.60;;;;;;5073511;28;20077;-72
2022/07/15 01:45:12;;;;;;;15.10;7.43;;;14.70;80.90;;;;;;5078293;28;20032;-72
2022/07/15 01:47:47;;;;;;;14.93;7.40;;;14.70;80.90;;;;;;5072431;28;20492;-72
2022/07/15 01:50:15;;;;;;;14.27;7.18;;;14.60;81.00;;;;;;5072468;28;20044;-72
2022/07/15 01:52:41;;;;;;;14.02;7.68;;;14.60;81.10;;;;;;5079050;28;20381;-71
2022/07/15 01:55:08;;;;;;;12.85;6.78;;;14.60;81.10;;;;;;5088010;28;20035;-72
2022/07/15 01:57:34;;;;;;;13.65;6.78;;;14.60;81.20;;;;;;5072785;28;20036;-72
2022/07/15 02:00:00;;;;;;;13.20;6.85;;;14.60;81.10;;;;;;5081360;28;20040;-72
2022/07/15 02:02:25;;;;;;;14.65;6.65;;;14.60;81.10;;;;;;5090975;28;20040;-72
2022/07/15 02:04:51;;;;;;;13.52;7.35;;;14.60;81.00;;;;;;5084053;28;20032;-72
2022/07/15 02:07:17;;;;;;;13.38;7.25;;;14.60;81.00;;;;;;5073118;28;20052;-72
2022/07/15 02:09:43;;;;;;;12.38;6.78;;;14.60;80.60;;;;;;5079127;28;20037;-72
2022/07/15 02:12:08;;;;;;;12.68;7.10;;;14.60;80.60;;;;;;5086996;28;20036;-72
2022/07/15 02:14:34;;;;;;;13.80;7.03;;;14.50;80.50;;;;;;5083770;28;20025;-72
2022/07/15 02:17:01;;;;;;;13.60;6.57;;;14.50;80.70;;;;;;5076435;28;20068;-72
2022/07/15 02:19:26;;;;;;;11.73;6.63;;;14.40;80.50;;;;;;5076241;28;20036;-72
2022/07/15 02:21:52;;;;;;;15.25;7.28;;;14.40;80.70;;;;;;5093836;28;20024;-73
2022/07/15 02:24:21;;;;;;;14.40;7.80;;;14.40;80.90;;;;;;5083166;28;20123;-72
2022/07/15 02:26:48;;;;;;;13.25;6.80;;;14.30;81.10;;;;;;5072155;28;20055;-72
2022/07/15 02:29:14;;;;;;;11.98;7.20;;;14.30;81.30;;;;;;5078004;28;20132;-72
2022/07/15 02:31:40;;;;;;;17.45;7.68;;;14.40;81.30;;;;;;5073175;28;20055;-72
2022/07/15 02:34:06;;;;;;;13.25;6.82;;;14.40;81.40;;;;;;5079951;28;20484;-72
2022/07/15 02:36:32;;;;;;;11.60;6.18;;;14.40;81.20;;;;;;5079819;28;20063;-72
2022/07/15 02:38:57;;;;;;;12.57;6.20;;;14.40;81.10;;;;;;5066403;28;20037;-72
2022/07/15 02:41:23;;;;;;;12.60;6.80;;;14.30;81.00;;;;;;5085953;28;20035;-71
2022/07/15 02:43:49;;;;;;;11.85;6.80;;;14.30;81.00;;;;;;5082939;28;20557;-72
2022/07/15 02:46:16;;;;;;;10.23;6.30;;;14.30;81.10;;;;;;5080326;28;20126;-72
2022/07/15 02:48:42;;;;;;;11.93;6.10;;;14.30;81.20;;;;;;5079352;28;20082;-71
2022/07/15 02:51:07;;;;;;;11.18;6.97;;;14.20;81.20;;;;;;5075656;28;20075;-71
2022/07/15 02:53:34;;;;;;;12.30;7.07;;;14.20;81.20;;;;;;5075130;28;20041;-71
2022/07/15 02:56:01;;;;;;;11.05;6.72;;;14.20;81.10;;;;;;5090753;28;20100;-71
2022/07/15 02:58:27;;;;;;;11.52;6.35;;;14.10;81.00;;;;;;5088650;28;20434;-71
2022/07/15 03:00:54;;;;;;;13.02;7.22;;;14.10;81.10;;;;;;5089165;28;20534;-70
2022/07/15 03:03:19;;;;;;;12.15;6.65;;;14.10;81.20;;;;;;5087364;28;20047;-71
2022/07/15 03:05:45;;;;;;;15.02;8.15;;;14.10;81.30;;;;;;5081617;28;20039;-71
2022/07/15 03:08:11;;;;;;;13.02;7.15;;;14.10;81.30;;;;;;5088248;28;20498;-71
2022/07/15 03:10:37;;;;;;;12.93;6.85;;;14.10;81.20;;;;;;5073436;28;20122;-71
2022/07/15 03:13:02;;;;;;;9.35;6.30;;;14.10;81.20;;;;;;5074952;28;20052;-71
2022/07/15 03:15:28;;;;;;;12.80;6.50;;;14.00;81.20;;;;;;5080969;28;20040;-71
2022/07/15 03:17:54;;;;;;;12.25;7.07;;;14.00;81.00;;;;;;5071509;28;20028;-70
2022/07/15 03:20:19;;;;;;;10.65;6.53;;;13.90;81.00;;;;;;5079110;28;20480;-71
2022/07/15 03:22:45;;;;;;;15.77;7.43;;;13.90;81.00;;;;;;5079652;28;20032;-71
2022/07/15 03:25:11;;;;;;;10.98;7.20;;;13.80;81.10;;;;;;5080336;28;20032;-71
2022/07/15 03:27:38;;;;;;;12.70;7.18;;;13.80;81.10;;;;;;5070212;28;20029;-71
2022/07/15 03:30:04;;;;;;;10.88;6.38;;;13.80;81.30;;;;;;5077952;28;20227;-71
2022/07/15 03:32:29;;;;;;;11.18;6.05;;;13.70;81.40;;;;;;5082679;28;20135;-71
2022/07/15 03:34:57;;;;;;;10.30;5.88;;;13.70;81.30;;;;;;5073298;28;20090;-71
2022/07/15 03:37:22;;;;;;;11.93;6.88;;;13.70;81.10;;;;;;5074650;28;20033;-71
2022/07/15 03:39:48;;;;;;;10.52;6.03;;;13.70;81.20;;;;;;5086676;28;20040;-71
2022/07/15 03:42:14;;;;;;;11.65;6.57;;;13.70;81.30;;;;;;5070260;28;20119;-71
2022/07/15 03:44:40;;;;;;;14.23;7.20;;;13.70;81.40;;;;;;5085744;28;20028;-71
2022/07/15 03:47:06;;;;;;;16.17;7.07;;;13.70;81.40;;;;;;5071179;28;20476;-71
2022/07/15 03:49:31;;;;;;;13.30;6.95;;;13.70;81.40;;;;;;5074010;28;20032;-71
2022/07/15 03:51:57;;;;;;;12.07;7.40;;;13.70;81.50;;;;;;5070796;28;20052;-71
2022/07/15 03:54:23;;;;;;;12.20;7.25;;;13.70;81.40;;;;;;5074985;28;20071;-71
2022/07/15 03:56:49;;;;;;;11.95;6.88;;;13.70;81.50;;;;;;5070432;28;20036;-71
2022/07/15 03:59:16;;;;;;;10.60;6.78;;;13.70;81.20;;;;;;5072395;28;20531;-71
2022/07/15 04:01:41;;;;;;;13.30;7.40;;;13.70;81.10;;;;;;5077874;28;20028;-71
2022/07/15 04:04:08;;;;;;;11.38;7.18;;;13.70;81.00;;;;;;5080289;28;20032;-71
2022/07/15 04:06:34;;;;;;;17.05;8.00;;;13.80;81.10;;;;;;5087586;28;20028;-71
2022/07/15 04:09:00;;;;;;;11.90;7.07;;;13.80;81.20;;;;;;5075756;28;20407;-71
2022/07/15 04:11:26;;;;;;;13.10;6.70;;;13.80;81.30;;;;;;5077772;28;20112;-71
2022/07/15 04:13:51;;;;;;;14.23;7.05;;;13.90;81.30;;;;;;5077182;28;20056;-71
2022/07/15 04:16:17;;;;;;;15.30;8.45;;;13.90;81.40;;;;;;5068085;28;20037;-71
2022/07/15 04:18:43;;;;;;;14.30;7.88;;;13.90;81.30;;;;;;5069422;28;20040;-71
2022/07/15 04:21:09;;;;;;;11.10;7.03;;;13.90;81.60;;;;;;5068341;28;20028;-71
2022/07/15 04:23:35;;;;;;;14.43;7.32;;;13.90;81.60;;;;;;5083857;28;20040;-71
2022/07/15 04:26:00;;;;;;;13.13;7.38;;;14.00;81.50;;;;;;5079493;28;20480;-71
2022/07/15 04:28:26;;;;;;;15.05;7.55;;;14.00;81.50;;;;;;5077038;28;20036;-71
2022/07/15 04:30:52;;;;;;;13.88;8.40;;;14.10;81.60;;;;;;5071483;28;20041;-71
2022/07/15 04:33:19;;;;;;;12.40;7.32;;;14.10;81.80;;;;;;5080619;28;20039;-71
2022/07/15 04:35:44;;;;;;;14.40;7.63;;;14.10;81.90;;;;;;5081825;28;20383;-76
2022/07/15 04:38:10;;;;;;;13.88;7.72;;;14.20;81.50;;;;;;5069941;28;20043;-76
2022/07/15 04:40:39;;;;;;;12.68;7.03;;;14.40;81.20;;;;;;5077762;28;20036;-76
2022/07/15 04:43:05;;;;;;;14.55;7.45;;;14.40;81.10;;;;;;5077270;28;20136;-76
2022/07/15 04:45:31;;;;;;;12.60;7.05;;;14.60;80.70;;;;;;5076812;28;20079;-76
2022/07/15 04:47:57;;;;;;;14.73;7.60;;;14.70;80.50;;;;;;5085675;28;20036;-76
2022/07/15 04:53:06;;;;;;;14.57;8.43;;;14.90;80.00;;;;;;5072288;28;20191;-76
2022/07/15 04:55:33;;;;;;;15.43;7.68;;;15.00;80.00;;;;;;5088210;28;20353;-77
2022/07/15 04:57:59;;;;;;;13.48;7.28;;;15.10;80.10;;;;;;5074683;28;20403;-76
2022/07/15 05:00:25;;;;;;;14.95;7.80;;;15.20;79.90;;;;;;5069647;28;20040;-76
2022/07/15 05:02:50;;;;;;;21.55;8.50;;;15.30;79.50;;;;;;5075649;28;20468;-76
2022/07/15 05:05:16;;;;;;;21.55;9.50;;;15.50;79.20;;;;;;5068893;28;20115;-76
2022/07/15 05:07:42;;;;;;;21.45;10.15;;;15.50;79.10;;;;;;5067668;28;20394;-76
2022/07/15 05:10:09;;;;;;;19.67;9.50;;;15.60;77.90;;;;;;5079179;28;20059;-77
2022/07/15 05:12:35;;;;;;;15.90;8.40;;;15.50;78.80;;;;;;5073577;28;20036;-76
2022/07/15 05:15:01;;;;;;;14.63;9.40;;;15.60;78.70;;;;;;5072064;28;20115;-76
2022/07/15 05:17:27;;;;;;;15.40;8.38;;;15.80;77.90;;;;;;5083940;28;20024;-76
2022/07/15 05:19:53;;;;;;;18.80;10.32;;;15.90;77.70;;;;;;5092986;28;20069;-76
2022/07/15 05:22:19;;;;;;;17.25;9.73;;;16.00;77.60;;;;;;5075016;28;20487;-76
2022/07/15 05:24:45;;;;;;;18.45;10.93;;;16.00;77.30;;;;;;5086837;28;20033;-76
2022/07/15 05:27:11;;;;;;;13.95;9.32;;;16.80;75.60;;;;;;5071418;28;20052;-77
2022/07/15 05:29:37;;;;;;;15.60;8.15;;;18.40;71.00;;;;;;5082193;28;20175;-77
2022/07/15 05:32:03;;;;;;;15.95;8.45;;;20.10;65.60;;;;;;5078558;28;20123;-77
2022/07/15 05:34:29;;;;;;;12.20;6.65;;;21.70;58.80;;;;;;5081815;28;20101;-77
2022/07/15 05:36:54;;;;;;;11.77;6.50;;;23.10;55.00;;;;;;5072140;28;20025;-77
2022/07/15 05:39:20;;;;;;;12.27;6.65;;;23.80;52.50;;;;;;5081313;28;20044;-77
2022/07/15 05:41:47;;;;;;;12.27;6.30;;;24.50;49.50;;;;;;5077768;28;20390;-77
2022/07/15 05:44:12;;;;;;;12.60;6.72;;;24.90;49.00;;;;;;5082906;28;20047;-76
2022/07/15 05:46:38;;;;;;;14.07;6.35;;;25.20;48.00;;;;;;5077793;28;20036;-77
2022/07/15 05:49:03;;;;;;;13.15;6.50;;;25.40;46.80;;;;;;5071662;28;20044;-76
2022/07/15 05:51:29;;;;;;;10.63;5.43;;;24.60;47.20;;;;;;5091054;28;20484;-75
2022/07/15 05:53:55;;;;;;;12.23;5.45;;;24.10;48.70;;;;;;5080651;28;20610;-76
2022/07/15 05:56:21;;;;;;;10.18;5.32;;;23.80;50.00;;;;;;5081197;28;20040;-76
2022/07/15 05:58:47;;;;;;;8.80;4.80;;;23.70;49.60;;;;;;5076846;28;20487;-77
2022/07/15 06:01:13;;;;;;;10.77;5.30;;;23.50;50.70;;;;;;5086769;28;20032;-76
2022/07/15 06:03:39;;;;;;;12.40;5.78;;;23.00;52.70;;;;;;5079938;28;20056;-76
2022/07/15 06:06:06;;;;;;;11.75;4.80;;;22.10;54.90;;;;;;5080247;28;20562;-76
2022/07/15 06:08:32;;;;;;;12.88;5.45;;;21.10;56.80;;;;;;5066400;28;20523;-76
2022/07/15 06:10:58;;;;;;;8.68;4.97;;;20.40;59.00;;;;;;5084752;28;20123;-77
2022/07/15 06:13:23;;;;;;;12.45;5.05;;;19.90;60.70;;;;;;5084386;28;20451;-76
2022/07/15 06:15:49;;;;;;;9.40;4.63;;;19.60;62.20;;;;;;5098357;28;20028;-76
2022/07/15 06:18:16;;;;;;;10.77;5.07;;;19.30;62.60;;;;;;5086833;28;20036;-76
2022/07/15 06:20:42;;;;;;;8.55;4.20;;;19.10;63.90;;;;;;5079614;28;20032;-76
2022/07/15 06:23:07;;;;;;;11.57;5.15;;;18.90;64.00;;;;;;5075716;28;20037;-76
2022/07/15 06:25:33;;;;;;;9.48;4.13;;;18.60;64.80;;;;;;5080835;28;20047;-76
2022/07/15 06:27:58;;;;;;;10.43;4.72;;;18.50;65.60;;;;;;5075448;28;20089;-77
2022/07/15 06:30:24;;;;;;;11.02;4.78;;;18.50;65.60;;;;;;5079769;28;20070;-76
2022/07/15 06:32:50;;;;;;;8.93;3.80;;;18.60;65.70;;;;;;5070298;28;20077;-76
2022/07/15 06:35:16;;;;;;;9.57;4.07;;;18.70;65.40;;;;;;5079416;28;20402;-75
2022/07/15 06:37:42;;;;;;;9.85;4.03;;;18.70;64.40;;;;;;5081230;28;20108;-75
2022/07/15 06:40:08;;;;;;;8.93;3.90;;;18.60;65.10;;;;;;5085003;28;20075;-76
2022/07/15 06:42:33;;;;;;;10.07;4.00;;;18.80;65.80;;;;;;5072630;28;20037;-76
2022/07/15 06:44:59;;;;;;;10.68;4.00;;;19.00;65.80;;;;;;5070748;28;20077;-76
2022/07/15 06:47:25;;;;;;;10.02;4.13;;;19.00;64.80;;;;;;5069457;28;20043;-76
2022/07/15 06:49:50;;;;;;;10.75;4.05;;;19.10;65.10;;;;;;5090654;28;20036;-76
2022/07/15 06:52:16;;;;;;;9.98;3.53;;;19.10;64.90;;;;;;5080288;28;20115;-76
2022/07/15 06:54:42;;;;;;;7.25;3.15;;;19.20;64.70;;;;;;5072979;28;20025;-76
2022/07/15 06:57:08;;;;;;;7.75;2.45;;;19.50;63.00;;;;;;5084746;28;20408;-77
2022/07/15 06:59:34;;;;;;;8.73;2.60;;;19.30;63.40;;;;;;5088878;28;20028;-76
2022/07/15 07:02:00;;;;;;;7.20;2.75;;;19.30;63.10;;;;;;5081063;28;20043;-76
2022/07/15 07:04:26;;;;;;;6.25;2.20;;;19.40;62.80;;;;;;5082492;28;20028;-76
2022/07/15 07:06:52;;;;;;;7.55;2.90;;;19.40;62.20;;;;;;5072578;28;20033;-75
2022/07/15 07:09:17;;;;;;;8.38;2.83;;;19.60;61.80;;;;;;5089447;28;20068;-75
2022/07/15 07:11:43;;;;;;;6.55;2.40;;;19.70;62.40;;;;;;5082753;28;20123;-76
2022/07/15 07:14:09;;;;;;;9.50;2.88;;;19.90;60.90;;;;;;5088401;28;20068;-76
2022/07/15 07:16:35;;;;;;;6.65;2.20;;;20.00;60.60;;;;;;5077426;28;20082;-76
2022/07/15 07:19:01;;;;;;;6.68;2.85;;;20.10;61.10;;;;;;5082849;28;20504;-76
2022/07/15 07:21:26;;;;;;;9.13;3.03;;;20.00;60.30;;;;;;5071232;28;20036;-76
2022/07/15 07:23:53;;;;;;;8.35;3.30;;;19.90;60.50;;;;;;5087914;28;20071;-76
2022/07/15 07:26:18;;;;;;;6.28;2.60;;;19.80;60.80;;;;;;5076143;28;20043;-77
2022/07/15 07:28:45;;;;;;;7.43;2.60;;;20.10;60.40;;;;;;5071878;28;20033;-77
2022/07/15 07:31:13;;;;;;;6.25;2.13;;;20.40;59.90;;;;;;5077046;28;20064;-76
2022/07/15 07:33:39;;;;;;;7.45;2.78;;;20.60;58.30;;;;;;5079506;28;20040;-76
2022/07/15 07:36:06;;;;;;;5.05;2.13;;;20.30;57.70;;;;;;5078895;28;20039;-76
2022/07/15 07:38:33;;;;;;;6.30;2.13;;;20.50;58.10;;;;;;5069447;28;20056;-76
2022/07/15 07:40:59;;;;;;;8.25;2.33;;;20.50;57.00;;;;;;5086531;28;20028;-76
2022/07/15 07:43:25;;;;;;;6.00;1.92;;;20.50;56.10;;;;;;5084218;28;20076;-76
2022/07/15 07:45:51;;;;;;;8.65;2.22;;;20.50;56.30;;;;;;5083683;28;20032;-75
2022/07/15 07:48:17;;;;;;;4.95;2.10;;;20.60;58.20;;;;;;5072272;28;20035;-76
2022/07/15 07:50:44;;;;;;;6.32;2.10;;;20.60;56.20;;;;;;5082062;28;20116;-76
2022/07/15 07:53:10;;;;;;;9.90;2.80;;;20.80;55.90;;;;;;5078156;28;20047;-76
2022/07/15 07:55:36;;;;;;;5.50;2.20;;;20.90;56.60;;;;;;5079202;28;20040;-76
2022/07/15 07:58:02;;;;;;;6.30;2.45;;;21.20;55.90;;;;;;5080416;28;20115;-76
2022/07/15 08:00:29;;;;;;;6.72;2.63;;;21.30;54.10;;;;;;5069470;28;20451;-76
2022/07/15 08:02:57;;;;;;;6.07;2.20;;;21.60;54.10;;;;;;5084238;28;20054;-76
2022/07/15 08:05:23;;;;;;;3.95;1.70;;;21.80;52.40;;;;;;5069160;28;20045;-77
2022/07/15 08:07:49;;;;;;;4.20;2.03;;;21.80;51.50;;;;;;5073174;28;20036;-76
2022/07/15 08:10:18;;;;;;;6.32;1.60;;;21.90;49.20;;;;;;5077574;28;20442;-76
2022/07/15 08:12:43;;;;;;;5.25;1.95;;;21.70;49.20;;;;;;5073403;28;20040;-76
2022/07/15 08:15:11;;;;;;;6.35;1.85;;;21.90;50.80;;;;;;5087942;28;20036;-76
2022/07/15 08:17:38;;;;;;;5.40;2.00;;;22.10;51.10;;;;;;5080608;28;20094;-76
2022/07/15 08:20:08;;;;;;;5.05;2.13;;;21.80;50.80;;;;;;5073027;28;20043;-76
2022/07/15 08:22:35;;;;;;;5.65;1.83;;;21.80;51.20;;;;;;5077212;28;20094;-76
2022/07/15 08:25:00;;;;;;;6.80;2.03;;;22.10;51.20;;;;;;5078486;28;20585;-75
2022/07/15 08:27:26;;;;;;;6.32;1.80;;;22.00;51.30;;;;;;5078018;28;20127;-76
2022/07/15 08:29:53;;;;;;;6.10;1.70;;;22.10;50.80;;;;;;5077591;28;20060;-76
2022/07/15 08:32:19;;;;;;;5.63;1.80;;;22.10;49.00;;;;;;5082845;28;20036;-76
2022/07/15 08:34:47;;;;;;;5.20;1.40;;;22.30;48.20;;;;;;5087688;28;20075;-76
2022/07/15 08:37:13;;;;;;;3.72;1.45;;;22.50;48.10;;;;;;5086001;28;20059;-75
2022/07/15 08:39:39;;;;;;;5.68;1.88;;;22.60;47.70;;;;;;5078208;28;20135;-76
2022/07/15 08:42:05;;;;;;;6.70;2.00;;;22.70;47.00;;;;;;5076635;28;20551;-76
2022/07/15 08:44:32;;;;;;;6.72;2.33;;;22.60;47.00;;;;;;5080929;28;20090;-76
2022/07/15 08:47:05;;;;;;;4.50;2.20;;;22.70;47.20;;;;;;5068006;28;20186;-76
2022/07/15 08:49:32;;;;;;;6.88;2.05;;;22.70;46.80;;;;;;5077350;28;20029;-76
2022/07/15 08:52:00;;;;;;;5.35;1.95;;;22.70;47.50;;;;;;5077671;28;20391;-76
2022/07/15 08:54:26;;;;;;;5.05;2.20;;;22.70;47.70;;;;;;5079082;28;20064;-76
2022/07/15 08:56:52;;;;;;;6.90;2.67;;;22.80;47.10;;;;;;5068823;28;20063;-75
2022/07/15 08:59:17;;;;;;;6.53;2.30;;;22.60;47.90;;;;;;5076352;28;20384;-76
2022/07/15 09:01:45;;;;;;;7.60;2.75;;;22.60;48.60;;;;;;5075143;28;20151;-75
2022/07/15 09:04:12;;;;;;;6.40;2.40;;;22.90;48.20;;;;;;5081305;28;20040;-76
2022/07/15 09:06:44;;;;;;;7.68;2.67;;;23.10;47.80;;;;;;5073637;28;20039;-76
2022/07/15 09:09:29;;;;;;;6.60;2.45;;;23.10;46.00;;;;;;5069169;28;20055;-76
2022/07/15 09:12:00;;;;;;;5.65;2.33;;;23.20;47.60;;;;;;5075493;28;20063;-76
2022/07/15 09:14:30;;;;;;;9.90;2.95;;;23.20;47.40;;;;;;5060569;28;20053;-76
2022/07/15 09:17:23;;;;;;;7.10;3.08;;;23.50;47.30;;;;;;5077092;28;20475;-76
2022/07/15 09:20:07;;;;;;;7.03;2.75;;;23.50;46.60;;;;;;5074675;28;20158;-76
2022/07/15 09:22:46;;;;;;;;;;;23.50;46.40;;;;;;5072234;28;20472;-75
2022/07/15 09:25:11;;;;;;;8.70;2.47;;;23.40;46.00;;;;;;5070171;28;20330;-76
2022/07/15 09:27:43;;;;;;;6.95;2.22;;;23.70;47.30;;;;;;5076943;28;20101;-76
2022/07/15 09:33:38;;;;;;;7.10;2.30;;;23.40;46.10;;;;;;5062916;28;20055;-76
2022/07/15 09:36:08;;;;;;;5.57;2.03;;;22.80;47.60;;;;;;5082260;28;20032;-76
2022/07/15 09:38:41;;;;;;;7.95;2.50;;;22.80;47.80;;;;;;5076565;28;20112;-76
2022/07/15 09:41:12;;;;;;;6.20;1.92;;;22.60;47.70;;;;;;5088591;28;20052;-76
2022/07/15 09:43:50;;;;;;;6.28;2.30;;;23.00;47.30;;;;;;5088230;28;20122;-76
2022/07/15 09:46:17;;;;;;;6.78;2.30;;;23.00;47.70;;;;;;5078100;28;20464;-76
2022/07/15 09:48:45;;;;;;;7.00;2.67;;;22.90;47.50;;;;;;5072616;28;20028;-75
2022/07/15 09:51:11;;;;;;;6.57;2.30;;;23.10;48.00;;;;;;5087618;28;20040;-77
2022/07/15 09:53:39;;;;;;;6.03;2.47;;;23.20;46.50;;;;;;5081963;28;20128;-77
2022/07/15 09:56:07;;;;;;;5.97;2.10;;;23.10;46.70;;;;;;5086864;28;20480;-77
2022/07/15 09:58:36;;;;;;;7.00;2.67;;;22.70;47.70;;;;;;5077666;28;20036;-77
2022/07/15 10:01:03;;;;;;;5.85;2.78;;;22.60;47.00;;;;;;5072403;28;20037;-76
2022/07/15 10:03:31;;;;;;;6.93;2.15;;;22.60;48.10;;;;;;5079928;28;20036;-76
2022/07/15 10:05:59;;;;;;;5.47;2.40;;;22.90;46.50;;;;;;5079631;28;20036;-76
2022/07/15 10:08:25;;;;;;;6.47;2.58;;;23.30;45.80;;;;;;5078615;28;20409;-76
2022/07/15 10:10:53;;;;;;;6.03;2.30;;;24.00;45.10;;;;;;5085452;28;20119;-76
2022/07/15 10:13:42;;;;;;;4.75;2.10;;;24.60;43.30;;;;;;5072426;28;20048;-76
2022/07/15 10:16:21;;;;;;;5.57;1.80;;;25.10;42.10;;;;;;5081244;28;20043;-76
2022/07/15 10:19:10;;;;;;;5.95;2.05;;;25.60;41.20;;;;;;5087078;28;20480;-76
2022/07/15 10:21:53;;;;;;;9.07;2.42;;;25.70;40.80;;;;;;5070255;28;20039;-75
2022/07/15 10:24:26;;;;;;;7.15;2.40;;;24.80;42.10;;;;;;5080225;28;20056;-76
2022/07/15 10:27:48;;;;;;;7.28;2.30;;;24.20;44.20;;;;;;5078351;28;20115;-76
2022/07/15 10:30:19;;;;;;;6.60;2.00;;;23.80;45.00;;;;;;4978572;28;20038;-76
2022/07/15 10:33:03;;;;;;;8.10;2.60;;;23.50;46.10;;;;;;4978663;28;20046;-76
2022/07/15 10:35:45;;;;;;;6.30;2.42;;;23.70;44.90;;;;;;5054522;28;20129;-76
2022/07/15 10:38:31;;;;;;;6.88;2.60;;;24.30;44.50;;;;;;5085208;28;20152;-76
2022/07/15 10:41:05;;;;;;;5.43;2.60;;;24.40;43.80;;;;;;5090580;28;20033;-76
2022/07/15 10:43:41;;;;;;;5.63;2.40;;;24.10;43.40;;;;;;5070929;28;20422;-76
2022/07/15 10:46:28;;;;;;;4.80;2.13;;;24.20;45.00;;;;;;5083299;28;20036;-76
2022/07/15 10:49:00;;;;;;;9.27;2.40;;;24.30;44.10;;;;;;5080059;28;20036;-76
2022/07/15 10:51:45;;;;;;;6.35;2.42;;;24.90;42.20;;;;;;5090407;28;20040;-76
2022/07/15 10:54:31;;;;;;;4.45;2.15;;;24.80;43.50;;;;;;5068333;28;20067;-77
2022/07/15 10:56:57;;;;;;;5.75;1.98;;;25.60;39.90;;;;;;5039855;28;20434;-77
2022/07/15 10:59:24;;;;;;;8.27;2.20;;;26.00;39.60;;;;;;5076202;28;20028;-77
2022/07/15 11:02:11;;;;;;;8.02;2.53;;;25.30;40.40;;;;;;5083073;28;20032;-77
2022/07/15 11:04:37;;;;;;;6.35;3.05;;;24.50;40.90;;;;;;5066001;28;20037;-77
2022/07/15 11:09:48;;;;;;;6.57;2.28;;;23.80;43.20;;;;;;5080424;28;20418;-77
2022/07/15 11:12:27;;;;;;;8.13;2.38;;;23.80;43.00;;;;;;5080295;28;20040;-77
2022/07/15 11:14:58;;;;;;;9.15;2.50;;;23.80;43.10;;;;;;5082219;28;20123;-77
2022/07/15 11:17:27;;;;;;;6.90;2.70;;;23.90;43.70;;;;;;5087069;28;20463;-77
2022/07/15 11:20:13;;;;;;;6.00;2.38;;;24.40;43.70;;;;;;5078113;28;20124;-77
2022/07/15 11:22:50;;;;;;;6.55;1.95;;;24.40;42.60;;;;;;5071047;28;20044;-77
2022/07/15 11:25:37;;;;;;;9.40;2.50;;;24.50;43.60;;;;;;5068819;28;20151;-77
2022/07/15 11:28:10;;;;;;;7.78;2.40;;;24.60;44.00;;;;;;5077736;28;20612;-77
2022/07/15 11:30:39;;;;;;;8.45;2.42;;;25.00;43.00;;;;;;5085388;28;20024;-77
2022/07/15 11:33:08;;;;;;;7.50;2.97;;;25.20;42.30;;;;;;5068900;28;20068;-77
2022/07/15 11:35:53;;;;;;;6.05;2.40;;;25.20;41.70;;;;;;5088700;28;20082;-77
2022/07/15 11:38:22;;;;;;;5.40;2.20;;;24.80;41.20;;;;;;5068034;28;20037;-77
2022/07/15 11:46:22;;;;;;;;;;;24.60;42.30;;;;;;5070347;28;20059;-77
2022/07/15 11:48:48;;;;;;;6.50;2.38;;;24.70;42.20;;;;;;5069222;28;20471;-77
2022/07/15 11:51:14;;;;;;;9.50;2.70;;;24.70;43.00;;;;;;5081468;28;20055;-77
2022/07/15 11:53:43;;;;;;;6.78;2.10;;;24.60;42.70;;;;;;5073069;28;20047;-77
2022/07/15 11:56:11;;;;;;;6.85;2.63;;;24.50;43.20;;;;;;5076086;28;20493;-75
2022/07/15 11:58:39;;;;;;;7.32;2.60;;;24.40;43.20;;;;;;5074682;28;20502;-77
2022/07/15 12:01:08;;;;;;;6.70;2.30;;;24.30;44.20;;;;;;5077589;28;20044;-77
2022/07/15 12:03:43;;;;;;;7.60;2.70;;;24.70;44.20;;;;;;5083513;28;20041;-77
2022/07/15 12:06:16;;;;;;;7.57;2.40;;;25.00;41.50;;;;;;5077993;28;20066;-77
2022/07/15 12:08:48;;;;;;;6.82;2.60;;;25.50;41.20;;;;;;5070166;28;20052;-77
2022/07/15 12:11:32;;;;;;;8.00;2.80;;;25.20;41.50;;;;;;5076297;28;20044;-76
2022/07/15 12:14:01;;;;;;;5.45;2.70;;;25.20;40.70;;;;;;5085091;28;20092;-77
2022/07/15 12:16:29;;;;;;;7.60;2.67;;;25.00;41.10;;;;;;5077992;28;20036;-77
2022/07/15 12:18:57;;;;;;;5.72;2.13;;;24.90;40.40;;;;;;5081493;28;20153;-77
2022/07/15 12:21:23;;;;;;;7.85;2.20;;;25.10;41.50;;;;;;5078226;28;20036;-77
2022/07/15 12:24:05;;;;;;;9.10;2.47;;;25.20;41.90;;;;;;5082256;28;20036;-76
2022/07/15 12:26:31;;;;;;;6.18;2.35;;;25.30;41.30;;;;;;5077220;28;20120;-76
2022/07/15 12:28:59;;;;;;;6.47;2.55;;;25.30;40.90;;;;;;5082755;28;20174;-77
2022/07/15 12:31:31;;;;;;;5.85;2.20;;;25.80;39.20;;;;;;5081687;28;20775;-77
2022/07/15 12:33:57;;;;;;;6.50;2.05;;;26.00;38.90;;;;;;5081934;28;20028;-77
2022/07/15 12:36:26;;;;;;;6.38;2.28;;;26.10;38.90;;;;;;5078888;28;20043;-77
2022/07/15 12:39:08;;;;;;;6.25;2.25;;;25.90;39.40;;;;;;5080972;28;20520;-77
2022/07/15 12:41:36;;;;;;;5.05;1.98;;;26.30;38.90;;;;;;5070993;28;20490;-77
2022/07/15 12:44:03;;;;;;;6.60;2.20;;;26.10;38.70;;;;;;5071275;28;20050;-77
2022/07/15 12:46:49;;;;;;;7.28;2.38;;;26.00;38.80;;;;;;5081090;28;20497;-77
2022/07/15 12:49:42;;;;;;;6.65;2.05;;;25.90;38.00;;;;;;5070038;28;20151;-77
2022/07/15 12:52:25;;;;;;;3.33;1.80;;;25.60;39.70;;;;;;5061551;28;20305;-77
2022/07/15 12:54:54;;;;;;;7.82;1.73;;;26.10;40.00;;;;;;5069022;28;20101;-77
2022/07/15 12:57:32;;;;;;;6.28;1.77;;;26.50;39.10;;;;;;5070556;28;20424;-76
2022/07/15 13:00:12;;;;;;;10.48;2.00;;;26.50;39.40;;;;;;5084515;28;20115;-76
2022/07/15 13:03:07;;;;;;;6.45;2.00;;;26.10;38.70;;;;;;5080117;28;20572;-75
2022/07/15 13:05:34;;;;;;;6.28;1.90;;;26.10;39.90;;;;;;5068527;28;20074;-76
2022/07/15 13:08:00;;;;;;;5.68;1.92;;;25.70;41.00;;;;;;5074263;28;20056;-75